createdAt,value
2019-02-14T00:00:18.326Z,1028.87
2019-02-14T00:01:18.314Z,1028.87
2019-02-14T00:02:18.328Z,1028.87
2019-02-14T00:03:18.327Z,1028.91
2019-02-14T00:04:18.331Z,1028.91
2019-02-14T00:05:18.337Z,1028.91
2019-02-14T00:06:18.340Z,1028.93
2019-02-14T00:07:18.337Z,1028.93
2019-02-14T00:08:18.341Z,1028.94
2019-02-14T00:09:18.366Z,1028.94
2019-02-14T00:10:18.339Z,1028.91
2019-02-14T00:11:18.350Z,1028.97
2019-02-14T00:12:18.351Z,1029.01
2019-02-14T00:13:18.349Z,1029.04
2019-02-14T00:14:18.355Z,1029.01
2019-02-14T00:15:18.360Z,1029.01
2019-02-14T00:16:18.367Z,1029.06
2019-02-14T00:17:18.368Z,1029.04
2019-02-14T00:18:18.371Z,1029.03
2019-02-14T00:19:18.369Z,1029.01
2019-02-14T00:20:18.379Z,1029.02
2019-02-14T00:21:18.373Z,1029.06
2019-02-14T00:22:18.388Z,1029.06
2019-02-14T00:23:18.384Z,1029.05
2019-02-14T00:24:18.386Z,1029.08
2019-02-14T00:25:18.388Z,1029.11
2019-02-14T00:26:18.391Z,1029.15
2019-02-14T00:27:18.400Z,1029.19
2019-02-14T00:28:18.396Z,1029.19
2019-02-14T00:29:18.402Z,1029.18
2019-02-14T00:30:18.401Z,1029.15
2019-02-14T00:31:18.415Z,1029.15
2019-02-14T00:32:18.409Z,1029.12
2019-02-14T00:33:18.424Z,1029.06
2019-02-14T00:34:18.410Z,1029.07
2019-02-14T00:35:24.906Z,1029.04
2019-02-14T00:36:18.562Z,1029.06
2019-02-14T00:37:18.595Z,1029.02
2019-02-14T00:38:18.619Z,1029.00
2019-02-14T00:39:18.451Z,1029.00
2019-02-14T00:40:18.487Z,1028.97
2019-02-14T00:41:18.566Z,1029.00
2019-02-14T00:42:18.564Z,1028.98
2019-02-14T00:43:18.486Z,1028.99
2019-02-14T00:44:18.440Z,1028.96
2019-02-14T00:45:18.445Z,1028.95
2019-02-14T00:46:18.451Z,1028.97
2019-02-14T00:47:18.448Z,1028.97
2019-02-14T00:48:18.451Z,1029.01
2019-02-14T00:49:18.450Z,1029.07
2019-02-14T00:50:18.456Z,1029.03
2019-02-14T00:51:18.458Z,1029.04
2019-02-14T00:52:18.459Z,1029.00
2019-02-14T00:53:18.465Z,1028.99
2019-02-14T00:54:18.465Z,1029.01
2019-02-14T00:55:18.467Z,1029.00
2019-02-14T00:56:18.469Z,1029.01
2019-02-14T00:57:18.472Z,1029.02
2019-02-14T00:58:18.477Z,1029.01
2019-02-14T00:59:18.501Z,1029.01
2019-02-14T01:00:18.488Z,1029.02
2019-02-14T01:01:18.486Z,1028.94
2019-02-14T01:02:18.493Z,1028.93
2019-02-14T01:03:18.493Z,1028.91
2019-02-14T01:04:18.493Z,1028.93
2019-02-14T01:05:18.493Z,1028.96
2019-02-14T01:06:18.497Z,1028.91
2019-02-14T01:07:18.501Z,1028.87
2019-02-14T01:08:18.503Z,1028.86
2019-02-14T01:09:18.508Z,1028.91
2019-02-14T01:10:18.508Z,1028.85
2019-02-14T01:11:18.509Z,1028.86
2019-02-14T01:12:18.512Z,1028.87
2019-02-14T01:13:18.516Z,1028.82
2019-02-14T01:14:18.523Z,1028.80
2019-02-14T01:15:18.524Z,1028.79
2019-02-14T01:16:18.522Z,1028.75
2019-02-14T01:17:18.531Z,1028.75
2019-02-14T01:18:18.530Z,1028.76
2019-02-14T01:19:18.529Z,1028.77
2019-02-14T01:20:18.531Z,1028.80
2019-02-14T01:21:18.533Z,1028.87
2019-02-14T01:22:18.541Z,1028.87
2019-02-14T01:23:18.541Z,1028.93
2019-02-14T01:24:18.635Z,1028.93
2019-02-14T01:25:18.546Z,1028.95
2019-02-14T01:26:18.549Z,1028.94
2019-02-14T01:27:18.552Z,1028.94
2019-02-14T01:28:18.552Z,1028.92
2019-02-14T01:29:18.560Z,1028.88
2019-02-14T01:30:18.557Z,1028.86
2019-02-14T01:31:18.570Z,1028.91
2019-02-14T01:32:18.563Z,1028.86
2019-02-14T01:33:18.566Z,1028.81
2019-02-14T01:34:18.565Z,1028.81
2019-02-14T01:35:18.565Z,1028.80
2019-02-14T01:36:18.583Z,1028.82
2019-02-14T01:37:18.571Z,1028.82
2019-02-14T01:38:18.577Z,1028.82
2019-02-14T01:39:18.579Z,1028.78
2019-02-14T01:40:18.578Z,1028.79
2019-02-14T01:41:18.582Z,1028.77
2019-02-14T01:42:18.604Z,1028.74
2019-02-14T01:43:18.583Z,1028.71
2019-02-14T01:44:18.598Z,1028.73
2019-02-14T01:45:18.587Z,1028.76
2019-02-14T01:46:18.591Z,1028.71
2019-02-14T01:47:18.592Z,1028.72
2019-02-14T01:48:18.602Z,1028.76
2019-02-14T01:49:18.614Z,1028.67
2019-02-14T01:50:18.623Z,1028.73
2019-02-14T01:51:18.608Z,1028.73
2019-02-14T01:52:18.606Z,1028.76
2019-02-14T01:53:18.615Z,1028.78
2019-02-14T01:54:18.616Z,1028.77
2019-02-14T01:55:18.616Z,1028.76
2019-02-14T01:56:18.614Z,1028.76
2019-02-14T07:15:19.086Z,1030.01
2019-02-14T07:16:19.042Z,1030.00
2019-02-14T07:17:19.157Z,1029.99
2019-02-14T07:18:19.053Z,1029.92
2019-02-14T07:19:19.054Z,1029.92
2019-02-14T07:20:19.054Z,1029.92
2019-02-14T07:21:19.064Z,1029.90
2019-02-14T07:22:19.056Z,1029.90
2019-02-14T07:23:19.055Z,1029.94
2019-02-14T07:24:19.063Z,1029.94
2019-02-14T07:25:19.060Z,1029.90
2019-02-14T07:26:19.062Z,1029.97
2019-02-14T07:27:19.064Z,1029.95
2019-02-14T07:28:19.124Z,1029.94
2019-02-14T07:29:19.073Z,1029.99
2019-02-14T07:30:19.068Z,1029.96
2019-02-14T07:31:19.068Z,1030.04
2019-02-14T07:32:19.070Z,1030.05
2019-02-14T07:33:19.072Z,1030.08
2019-02-14T07:34:19.074Z,1030.06
2019-02-14T07:35:19.075Z,1030.09
2019-02-14T07:36:19.073Z,1030.08
2019-02-14T07:37:26.575Z,1030.05
2019-02-14T07:38:19.083Z,1030.04
2019-02-14T07:39:19.083Z,1030.03
2019-02-14T07:40:19.087Z,1030.01
2019-02-14T07:41:19.089Z,1030.02
2019-02-14T07:42:19.091Z,1029.97
2019-02-14T07:43:19.097Z,1029.97
2019-02-14T07:44:19.092Z,1029.96
2019-02-14T07:45:19.102Z,1029.97
2019-02-14T07:46:22.749Z,1029.93
2019-02-14T07:47:19.098Z,1029.92
2019-02-14T07:48:19.106Z,1029.96
2019-02-14T07:49:19.112Z,1030.02
2019-02-14T07:50:19.111Z,1030.03
2019-02-14T07:51:19.109Z,1030.08
2019-02-14T07:52:24.980Z,1030.14
2019-02-14T07:53:19.106Z,1030.12
2019-02-14T07:54:19.114Z,1030.15
2019-02-14T07:55:19.151Z,1030.16
2019-02-14T07:56:19.127Z,1030.13
2019-02-14T07:57:19.123Z,1030.15
2019-02-14T07:58:19.125Z,1030.13
2019-02-14T07:59:19.132Z,1030.15
2019-02-14T08:00:19.130Z,1030.16
2019-02-14T08:01:19.133Z,1030.14
2019-02-14T08:02:19.145Z,1030.13
2019-02-14T08:03:19.142Z,1030.18
2019-02-14T08:04:19.143Z,1030.18
2019-02-14T08:05:19.143Z,1030.18
2019-02-14T08:06:19.145Z,1030.22
2019-02-14T08:07:19.150Z,1030.22
2019-02-14T08:08:19.156Z,1030.24
2019-02-14T08:09:19.154Z,1030.14
2019-02-14T08:10:19.162Z,1030.22
2019-02-14T08:11:19.162Z,1030.10
2019-02-14T08:12:19.172Z,1030.19
2019-02-14T08:13:19.175Z,1030.14
2019-02-14T08:14:19.171Z,1030.13
2019-02-14T08:15:19.173Z,1030.16
2019-02-14T08:16:19.177Z,1030.20
2019-02-14T08:17:19.177Z,1030.21
2019-02-14T08:18:19.193Z,1030.22
2019-02-14T08:19:19.184Z,1030.26
2019-02-14T08:20:19.188Z,1030.24
2019-02-14T08:21:19.196Z,1030.21
2019-02-14T08:22:19.194Z,1030.18
2019-02-14T08:23:19.200Z,1030.19
2019-02-14T08:24:19.215Z,1030.19
2019-02-14T08:26:19.202Z,1030.29
2019-02-14T08:27:19.207Z,1030.29
2019-02-14T08:28:19.223Z,1030.34
2019-02-14T08:29:19.217Z,1030.35
2019-02-14T08:30:19.223Z,1030.32
2019-02-14T08:31:19.309Z,1030.33
2019-02-14T08:32:19.238Z,1030.33
2019-02-14T08:33:19.235Z,1030.35
2019-02-14T08:34:19.233Z,1030.36
2019-02-14T08:35:19.238Z,1030.36
2019-02-14T08:36:19.245Z,1030.37
2019-02-14T08:37:19.279Z,1030.36
2019-02-14T08:38:19.244Z,1030.48
2019-02-14T08:39:19.261Z,1030.52
2019-02-14T08:40:19.262Z,1030.52
2019-02-14T08:41:19.266Z,1030.55
2019-02-14T08:42:19.363Z,1031.04
2019-02-14T08:43:19.275Z,1030.91
2019-02-14T08:44:19.273Z,1030.66
2019-02-14T08:45:19.283Z,1030.56
2019-02-14T08:46:19.291Z,1030.58
2019-02-14T08:47:19.313Z,1030.76
2019-02-14T08:48:19.299Z,1030.89
2019-02-14T08:49:19.302Z,1030.87
2019-02-14T08:50:19.326Z,1031.00
2019-02-14T08:51:19.316Z,1031.21
2019-02-14T08:52:19.325Z,1031.16
2019-02-14T08:53:19.340Z,1031.07
2019-02-14T08:54:19.354Z,1031.22
2019-02-14T08:55:19.361Z,1031.39
2019-02-14T08:56:19.366Z,1031.48
2019-02-14T08:57:19.375Z,1031.43
2019-02-14T08:58:19.386Z,1031.63
2019-02-14T08:59:19.393Z,1031.55
2019-02-14T09:00:19.404Z,1031.62
2019-02-14T09:01:19.423Z,1031.62
2019-02-14T09:02:19.432Z,1031.59
2019-02-14T09:03:19.442Z,1031.75
2019-02-14T09:04:19.456Z,1031.85
2019-02-14T09:05:19.473Z,1031.99
2019-02-14T09:06:19.497Z,1031.93
2019-02-14T09:07:19.492Z,1031.79
2019-02-14T09:08:19.516Z,1031.78
2019-02-14T09:09:19.515Z,1031.85
2019-02-14T09:10:19.543Z,1031.83
2019-02-14T09:11:19.552Z,1031.87
2019-02-14T09:12:19.564Z,1031.89
2019-02-14T09:13:19.579Z,1031.80
2019-02-14T09:14:19.588Z,1031.82
2019-02-14T09:15:19.608Z,1031.62
2019-02-14T09:16:19.634Z,1031.65
2019-02-14T09:17:19.648Z,1031.46
2019-02-14T09:18:19.705Z,1031.22
2019-02-14T09:19:19.661Z,1031.22
2019-02-14T09:20:19.672Z,1031.11
2019-02-14T09:21:19.698Z,1031.27
2019-02-14T09:22:19.708Z,1031.20
2019-02-14T09:23:19.719Z,1031.02
2019-02-14T09:24:19.735Z,1031.01
2019-02-14T09:25:19.753Z,1031.13
2019-02-14T09:26:19.763Z,1031.25
2019-02-14T09:27:19.772Z,1031.12
2019-02-14T09:28:19.781Z,1031.20
2019-02-14T09:29:19.798Z,1031.27
2019-02-14T09:30:19.813Z,1031.21
2019-02-14T09:31:19.827Z,1031.35
2019-02-14T09:32:19.837Z,1031.35
2019-02-14T09:33:19.857Z,1031.36
2019-02-14T09:34:19.855Z,1031.34
2019-02-14T09:35:19.872Z,1031.39
2019-02-14T09:36:19.886Z,1031.42
2019-02-14T09:37:19.898Z,1031.42
2019-02-14T09:38:19.911Z,1031.47
2019-02-14T09:39:19.925Z,1031.54
2019-02-14T09:40:19.938Z,1031.48
2019-02-14T09:41:19.956Z,1031.50
2019-02-14T09:42:19.979Z,1031.49
2019-02-14T09:43:19.988Z,1031.46
2019-02-14T09:44:20.022Z,1031.51
2019-02-14T09:45:20.012Z,1031.44
2019-02-14T09:46:20.035Z,1031.30
2019-02-14T09:47:20.048Z,1031.31
2019-02-14T09:48:20.073Z,1031.27
2019-02-14T09:49:20.084Z,1031.05
2019-02-14T09:50:20.088Z,1031.02
2019-02-14T09:51:20.119Z,1031.04
2019-02-14T09:52:20.130Z,1030.91
2019-02-14T09:53:20.149Z,1030.84
2019-02-14T09:54:20.161Z,1030.85
2019-02-14T09:55:20.193Z,1030.77
2019-02-14T09:56:20.196Z,1030.70
2019-02-14T09:57:20.207Z,1030.63
2019-02-14T09:58:20.219Z,1030.64
2019-02-14T09:59:20.233Z,1030.63
2019-02-14T10:00:20.249Z,1030.72
2019-02-14T10:01:20.263Z,1030.74
2019-02-14T10:02:20.295Z,1030.80
2019-02-14T10:03:20.293Z,1030.89
2019-02-14T10:04:20.308Z,1030.92
2019-02-14T10:05:20.328Z,1030.96
2019-02-14T10:06:20.359Z,1030.88
2019-02-14T10:07:20.355Z,1030.86
2019-02-14T10:08:20.372Z,1030.80
2019-02-14T10:09:20.378Z,1030.75
2019-02-14T10:10:20.466Z,1030.75
2019-02-14T10:11:20.406Z,1030.68
2019-02-14T10:12:20.417Z,1030.62
2019-02-14T10:13:20.427Z,1030.59
2019-02-14T10:14:20.436Z,1030.60
2019-02-14T10:15:20.448Z,1030.57
2019-02-14T10:16:20.459Z,1030.62
2019-02-14T10:17:22.220Z,1030.61
2019-02-14T10:18:20.477Z,1030.47
2019-02-14T10:19:20.586Z,1030.48
2019-02-14T10:20:20.499Z,1030.38
2019-02-14T10:21:20.522Z,1030.32
2019-02-14T10:22:20.519Z,1030.31
2019-02-14T10:23:20.536Z,1030.31
2019-02-14T10:24:20.553Z,1030.39
2019-02-14T10:25:20.556Z,1030.43
2019-02-14T10:26:20.565Z,1030.40
2019-02-14T10:27:20.575Z,1030.49
2019-02-14T10:28:20.589Z,1030.44
2019-02-14T10:29:20.603Z,1030.38
2019-02-14T10:30:20.611Z,1030.33
2019-02-14T10:31:20.615Z,1030.19
2019-02-14T10:32:20.636Z,1030.18
2019-02-14T10:33:20.644Z,1030.22
2019-02-14T10:34:20.660Z,1030.21
2019-02-14T10:35:20.658Z,1030.38
2019-02-14T10:36:20.685Z,1030.16
2019-02-14T10:37:20.683Z,1030.12
2019-02-14T10:38:22.635Z,1030.19
2019-02-14T10:39:20.754Z,1030.30
2019-02-14T10:40:20.791Z,1030.28
2019-02-14T10:41:20.741Z,1030.38
2019-02-14T10:42:20.782Z,1030.32
2019-02-14T10:43:20.770Z,1030.38
2019-02-14T10:44:20.841Z,1030.35
2019-02-14T10:45:20.792Z,1030.46
2019-02-14T10:46:20.815Z,1030.49
2019-02-14T10:47:20.817Z,1030.50
2019-02-14T10:48:20.839Z,1030.50
2019-02-14T10:49:20.884Z,1030.49
2019-02-14T10:50:20.884Z,1030.52
2019-02-14T10:51:20.884Z,1030.59
2019-02-14T10:52:20.903Z,1030.63
2019-02-14T10:53:20.927Z,1030.65
2019-02-14T10:54:20.934Z,1030.59
2019-02-14T10:55:20.957Z,1030.68
2019-02-14T10:56:20.969Z,1030.74
2019-02-14T10:57:20.995Z,1030.77
2019-02-14T10:58:21.000Z,1030.68
2019-02-14T10:59:21.015Z,1030.61
2019-02-14T11:00:21.029Z,1030.68
2019-02-14T11:01:21.049Z,1030.65
2019-02-14T11:02:21.068Z,1030.69
2019-02-14T11:03:21.085Z,1030.78
2019-02-14T11:04:21.104Z,1030.76
2019-02-14T11:05:21.123Z,1030.75
2019-02-14T11:06:21.133Z,1030.81
2019-02-14T11:07:21.202Z,1030.84
2019-02-14T11:08:21.162Z,1030.86
2019-02-14T11:09:21.182Z,1030.80
2019-02-14T11:10:21.206Z,1030.76
2019-02-14T11:11:21.220Z,1030.72
2019-02-14T11:12:21.857Z,1030.64
2019-02-14T11:13:21.258Z,1030.64
2019-02-14T11:14:28.969Z,1030.68
2019-02-14T11:15:21.294Z,1030.59
2019-02-14T11:16:21.313Z,1030.58
2019-02-14T11:17:21.328Z,1030.50
2019-02-14T11:18:21.344Z,1030.60
2019-02-14T11:19:21.359Z,1030.53
2019-02-14T11:20:21.384Z,1030.54
2019-02-14T11:21:21.389Z,1030.56
2019-02-14T11:22:21.417Z,1030.59
2019-02-14T11:23:21.425Z,1030.65
2019-02-14T11:24:21.446Z,1030.66
2019-02-14T11:25:21.451Z,1030.66
2019-02-14T11:26:21.538Z,1030.69
2019-02-14T11:27:21.534Z,1030.71
2019-02-14T11:28:21.505Z,1030.63
2019-02-14T11:29:21.526Z,1030.64
2019-02-14T11:30:21.536Z,1030.62
2019-02-14T11:31:21.548Z,1030.67
2019-02-14T11:32:21.564Z,1030.73
2019-02-14T11:33:21.584Z,1030.74
2019-02-14T11:34:21.597Z,1030.73
2019-02-14T11:35:21.615Z,1030.81
2019-02-14T11:36:21.628Z,1030.82
2019-02-14T11:37:21.662Z,1030.78
2019-02-14T11:38:21.661Z,1030.72
2019-02-14T11:39:21.677Z,1030.73
2019-02-14T11:40:21.697Z,1030.75
2019-02-14T11:41:21.709Z,1030.67
2019-02-14T11:42:21.971Z,1030.69
2019-02-14T11:43:21.742Z,1030.63
2019-02-14T11:44:21.758Z,1030.61
2019-02-14T11:45:21.778Z,1030.52
2019-02-14T11:46:21.791Z,1030.44
2019-02-14T11:47:21.802Z,1030.51
2019-02-14T11:48:21.838Z,1030.53
2019-02-14T11:49:21.837Z,1030.43
2019-02-14T11:50:21.865Z,1030.45
2019-02-14T11:51:21.867Z,1030.36
2019-02-14T11:52:21.886Z,1030.41
2019-02-14T11:53:21.908Z,1030.33
2019-02-14T11:54:21.915Z,1030.36
2019-02-14T11:55:21.928Z,1030.39
2019-02-14T11:56:21.954Z,1030.31
2019-02-14T11:57:21.960Z,1030.32
2019-02-14T11:58:21.979Z,1030.32
2019-02-14T11:59:22.007Z,1030.30
2019-02-14T12:00:22.005Z,1030.31
2019-02-14T12:01:22.024Z,1030.28
2019-02-14T12:02:22.046Z,1030.33
2019-02-14T12:03:22.057Z,1030.37
2019-02-14T12:04:22.067Z,1030.39
2019-02-14T12:05:22.091Z,1030.40
2019-02-14T12:06:22.095Z,1030.39
2019-02-14T12:07:22.115Z,1030.40
2019-02-14T12:08:22.141Z,1030.37
2019-02-14T12:09:22.157Z,1030.38
2019-02-14T12:10:22.167Z,1030.38
2019-02-14T12:11:22.228Z,1030.37
2019-02-14T12:12:23.076Z,1030.34
2019-02-14T12:13:22.258Z,1030.34
2019-02-14T12:14:22.241Z,1030.34
2019-02-14T12:15:23.374Z,1030.37
2019-02-14T12:16:22.283Z,1030.36
2019-02-14T12:17:22.277Z,1030.36
2019-02-14T12:18:24.094Z,1030.33
2019-02-14T12:19:22.326Z,1030.35
2019-02-14T12:20:22.328Z,1030.29
2019-02-14T12:21:22.340Z,1030.29
2019-02-14T12:22:22.374Z,1030.30
2019-02-14T12:23:22.383Z,1030.28
2019-02-14T12:24:22.409Z,1030.30
2019-02-14T12:25:22.436Z,1030.27
2019-02-14T12:26:22.438Z,1030.26
2019-02-14T12:27:22.459Z,1030.25
2019-02-14T12:28:22.476Z,1030.26
2019-02-14T12:29:22.493Z,1030.23
2019-02-14T12:30:22.504Z,1030.22
2019-02-14T12:31:22.513Z,1030.22
2019-02-14T12:32:22.542Z,1030.22
2019-02-14T12:33:22.566Z,1030.20
2019-02-14T12:34:22.575Z,1030.23
2019-02-14T12:35:22.586Z,1030.19
2019-02-14T12:36:22.616Z,1030.20
2019-02-14T12:37:22.629Z,1030.16
2019-02-14T12:38:22.655Z,1030.16
2019-02-14T12:39:22.681Z,1030.14
2019-02-14T12:40:22.688Z,1030.14
2019-02-14T12:41:22.690Z,1030.13
2019-02-14T12:42:22.717Z,1030.12
2019-02-14T12:43:22.750Z,1030.11
2019-02-14T12:44:22.753Z,1030.11
2019-02-14T12:45:24.196Z,1030.10
2019-02-14T12:47:22.810Z,1030.09
2019-02-14T12:48:22.821Z,1030.11
2019-02-14T12:50:22.866Z,1030.07
2019-02-14T12:51:22.877Z,1030.13
2019-02-14T12:52:22.906Z,1030.08
2019-02-14T12:53:22.926Z,1030.09
2019-02-14T12:54:22.952Z,1030.10
2019-02-14T12:55:22.956Z,1030.06
2019-02-14T12:56:22.973Z,1029.98
2019-02-14T12:57:22.991Z,1030.00
2019-02-14T12:58:22.996Z,1029.99
2019-02-14T12:59:23.032Z,1029.97
2019-02-14T13:00:23.046Z,1029.96
2019-02-14T13:01:23.064Z,1029.93
2019-02-14T13:03:23.102Z,1029.89
2019-02-14T13:04:23.122Z,1029.84
2019-02-14T13:05:23.138Z,1029.82
2019-02-14T13:06:23.150Z,1029.76
2019-02-14T13:07:23.168Z,1029.78
2019-02-14T13:08:23.197Z,1029.76
2019-02-14T13:09:23.213Z,1029.76
2019-02-14T13:10:23.230Z,1029.78
2019-02-14T13:11:23.250Z,1029.79
2019-02-14T13:12:23.267Z,1029.78
2019-02-14T13:13:23.285Z,1029.83
2019-02-14T13:14:23.309Z,1029.82
2019-02-14T13:15:23.322Z,1029.78
2019-02-14T13:16:23.341Z,1029.77
2019-02-14T13:17:23.361Z,1029.76
2019-02-14T13:18:23.410Z,1029.79
2019-02-14T13:19:23.398Z,1029.81
2019-02-14T13:20:23.419Z,1029.80
2019-02-14T13:21:23.438Z,1029.79
2019-02-14T13:22:23.447Z,1029.80
2019-02-14T13:23:23.470Z,1029.79
2019-02-14T13:24:23.488Z,1029.75
2019-02-14T13:25:23.513Z,1029.74
2019-02-14T13:26:23.527Z,1029.77
2019-02-14T13:27:23.548Z,1029.72
2019-02-14T13:28:23.567Z,1029.72
2019-02-14T13:29:23.590Z,1029.75
2019-02-14T13:30:23.596Z,1029.76
2019-02-14T13:31:31.553Z,1029.76
2019-02-14T13:32:23.658Z,1029.77
2019-02-14T13:33:23.660Z,1029.71
2019-02-14T13:34:23.668Z,1029.75
2019-02-14T13:35:23.709Z,1029.79
2019-02-14T13:36:23.726Z,1029.79
2019-02-14T13:37:23.733Z,1029.77
2019-02-14T13:38:23.750Z,1029.76
2019-02-14T13:39:29.704Z,1029.72
2019-02-14T13:40:23.789Z,1029.75
2019-02-14T13:41:30.909Z,1029.73
2019-02-14T13:42:23.818Z,1029.74
2019-02-14T13:43:23.853Z,1029.77
2019-02-14T13:44:23.871Z,1029.69
2019-02-14T13:45:23.877Z,1029.71
2019-02-14T13:46:23.903Z,1029.71
2019-02-14T13:47:23.918Z,1029.69
2019-02-14T13:48:23.937Z,1029.67
2019-02-14T13:49:23.971Z,1029.65
2019-02-14T13:50:23.987Z,1029.67
2019-02-14T13:51:23.982Z,1029.64
2019-02-14T13:52:24.009Z,1029.68
2019-02-14T13:53:24.030Z,1029.69
2019-02-14T13:54:24.047Z,1029.69
2019-02-14T13:55:24.068Z,1029.69
2019-02-14T13:56:24.083Z,1029.67
2019-02-14T13:57:24.107Z,1029.61
2019-02-14T13:58:24.122Z,1029.63
2019-02-14T13:59:24.140Z,1029.61
2019-02-14T14:00:24.234Z,1029.59
2019-02-14T14:01:24.197Z,1029.60
2019-02-14T14:02:24.204Z,1029.59
2019-02-14T14:03:24.216Z,1029.58
2019-02-14T14:04:24.244Z,1029.53
2019-02-14T14:05:24.261Z,1029.54
2019-02-14T14:06:25.520Z,1029.55
2019-02-14T14:07:24.291Z,1029.55
2019-02-14T14:08:24.309Z,1029.50
2019-02-14T14:09:24.322Z,1029.49
2019-02-14T14:10:24.339Z,1029.49
2019-02-14T14:11:24.370Z,1029.46
2019-02-14T14:12:24.386Z,1029.48
2019-02-14T14:13:24.399Z,1029.50
2019-02-14T14:14:24.412Z,1029.48
2019-02-14T14:15:24.435Z,1029.49
2019-02-14T14:16:24.451Z,1029.46
2019-02-14T14:17:24.465Z,1029.45
2019-02-14T14:18:24.485Z,1029.44
2019-02-14T14:19:24.498Z,1029.41
2019-02-14T14:20:24.523Z,1029.45
2019-02-14T14:21:24.537Z,1029.42
2019-02-14T14:22:24.560Z,1029.43
2019-02-14T14:23:24.578Z,1029.37
2019-02-14T14:24:24.608Z,1029.36
2019-02-14T14:25:24.608Z,1029.35
2019-02-14T14:26:24.627Z,1029.35
2019-02-14T14:27:24.644Z,1029.31
2019-02-14T14:28:24.661Z,1029.33
2019-02-14T14:29:24.677Z,1029.33
2019-02-14T14:30:24.703Z,1029.33
2019-02-14T14:31:24.713Z,1029.30
2019-02-14T14:32:24.742Z,1029.37
2019-02-14T14:33:24.754Z,1029.32
2019-02-14T14:34:24.776Z,1029.33
2019-02-14T14:35:24.790Z,1029.30
2019-02-14T14:36:24.798Z,1029.30
2019-02-14T14:37:24.817Z,1029.28
2019-02-14T14:38:24.839Z,1029.30
2019-02-14T14:39:24.851Z,1029.31
2019-02-14T14:40:24.872Z,1029.26
2019-02-14T14:41:24.890Z,1029.28
2019-02-14T14:42:24.909Z,1029.23
2019-02-14T14:43:24.940Z,1029.24
2019-02-14T14:44:24.947Z,1029.26
2019-02-14T14:45:24.962Z,1029.23
2019-02-14T14:46:24.974Z,1029.27
2019-02-14T14:47:25.000Z,1029.27
2019-02-14T14:48:25.014Z,1029.26
2019-02-14T14:49:25.046Z,1029.21
2019-02-14T14:50:25.042Z,1029.27
2019-02-14T14:51:25.138Z,1029.31
2019-02-14T14:52:25.078Z,1029.30
2019-02-14T14:53:25.105Z,1029.30
2019-02-14T14:54:25.112Z,1029.30
2019-02-14T14:55:25.131Z,1029.30
2019-02-14T14:56:25.147Z,1029.32
2019-02-14T14:57:25.173Z,1029.30
2019-02-14T14:58:25.183Z,1029.27
2019-02-14T14:59:25.203Z,1029.28
2019-02-14T15:00:25.217Z,1029.27
2019-02-14T15:01:25.230Z,1029.27
2019-02-14T15:02:25.253Z,1029.25
2019-02-14T15:03:25.269Z,1029.31
2019-02-14T15:04:25.299Z,1029.26
2019-02-14T15:05:25.319Z,1029.30
2019-02-14T15:06:25.319Z,1029.30
2019-02-14T15:07:25.341Z,1029.30
2019-02-14T15:08:25.351Z,1029.29
2019-02-14T15:09:25.380Z,1029.29
2019-02-14T15:10:25.404Z,1029.31
2019-02-14T15:11:25.414Z,1029.29
2019-02-14T15:12:25.425Z,1029.31
2019-02-14T15:13:25.451Z,1029.26
2019-02-14T15:14:25.461Z,1029.25
2019-02-14T15:15:25.470Z,1029.28
2019-02-14T15:16:25.481Z,1029.28
2019-02-14T15:17:25.509Z,1029.27
2019-02-14T15:18:25.519Z,1029.28
2019-02-14T15:19:25.556Z,1029.27
2019-02-14T15:20:25.557Z,1029.28
2019-02-14T15:21:25.576Z,1029.31
2019-02-14T15:22:25.948Z,1029.27
2019-02-14T15:23:25.594Z,1029.27
2019-02-14T15:24:25.632Z,1029.29
2019-02-14T15:25:25.634Z,1029.27
2019-02-14T15:26:25.641Z,1029.22
2019-02-14T15:27:25.666Z,1029.22
2019-02-14T15:28:25.685Z,1029.19
2019-02-14T15:29:25.739Z,1029.15
2019-02-14T15:30:25.714Z,1029.11
2019-02-14T15:31:25.876Z,1029.11
2019-02-14T15:32:25.754Z,1029.06
2019-02-14T15:33:25.773Z,1029.01
2019-02-14T15:34:25.802Z,1028.89
2019-02-14T15:35:25.895Z,1028.88
2019-02-14T15:36:28.156Z,1028.82
2019-02-14T15:37:26.077Z,1028.83
2019-02-14T15:38:25.895Z,1028.83
2019-02-14T15:39:26.097Z,1028.86
2019-02-14T15:40:26.062Z,1028.85
2019-02-14T15:41:25.981Z,1028.83
2019-02-14T15:42:25.940Z,1028.80
2019-02-14T15:43:26.043Z,1028.81
2019-02-14T15:44:26.048Z,1028.79
2019-02-14T15:45:26.131Z,1028.80
2019-02-14T15:46:26.112Z,1028.89
2019-02-14T15:47:26.007Z,1028.85
2019-02-14T15:48:26.018Z,1028.81
2019-02-14T15:49:26.010Z,1028.81
2019-02-14T15:50:27.794Z,1028.83
2019-02-14T15:51:26.039Z,1028.79
2019-02-14T15:52:27.446Z,1028.85
2019-02-14T15:53:26.075Z,1028.82
2019-02-14T15:54:26.096Z,1028.81
2019-02-14T15:55:26.098Z,1028.81
2019-02-14T15:56:27.356Z,1028.75
2019-02-14T15:57:26.143Z,1028.72
2019-02-14T15:58:26.146Z,1028.71
2019-02-14T15:59:26.175Z,1028.73
2019-02-14T16:00:26.181Z,1028.77
2019-02-14T16:01:26.185Z,1028.77
2019-02-14T16:02:28.411Z,1028.78
2019-02-14T16:03:26.218Z,1028.72
2019-02-14T16:04:27.081Z,1028.67
2019-02-14T16:05:26.240Z,1028.68
2019-02-14T16:06:28.377Z,1028.66
2019-02-14T16:07:26.279Z,1028.68
2019-02-14T16:08:26.406Z,1028.73
2019-02-14T16:09:26.301Z,1028.73
2019-02-14T16:10:27.766Z,1028.71
2019-02-14T16:11:26.326Z,1028.69
2019-02-14T16:12:26.361Z,1028.67
2019-02-14T16:13:26.361Z,1028.66
2019-02-14T16:14:26.384Z,1028.67
2019-02-14T16:15:26.386Z,1028.65
2019-02-14T16:16:26.399Z,1028.67
2019-02-14T16:17:26.408Z,1028.63
2019-02-14T16:18:26.425Z,1028.64
2019-02-14T16:19:26.434Z,1028.57
2019-02-14T16:20:26.457Z,1028.53
2019-02-14T16:21:27.769Z,1028.49
2019-02-14T16:22:29.939Z,1028.48
2019-02-14T16:23:27.815Z,1028.44
2019-02-14T16:24:26.515Z,1028.47
2019-02-14T16:25:28.228Z,1028.44
2019-02-14T16:26:26.537Z,1028.45
2019-02-14T16:27:26.935Z,1028.42
2019-02-14T16:28:26.563Z,1028.41
2019-02-14T16:29:27.455Z,1028.43
2019-02-14T16:30:28.825Z,1028.39
2019-02-14T16:31:26.607Z,1028.39
2019-02-14T16:32:26.617Z,1028.36
2019-02-14T16:33:26.680Z,1028.39
2019-02-14T16:34:26.633Z,1028.41
2019-02-14T16:35:26.649Z,1028.43
2019-02-14T16:36:26.659Z,1028.39
2019-02-14T16:37:26.669Z,1028.37
2019-02-14T16:38:26.688Z,1028.39
2019-02-14T16:39:28.563Z,1028.37
2019-02-14T16:40:28.096Z,1028.34
2019-02-14T16:41:26.722Z,1028.30
2019-02-14T16:42:26.736Z,1028.31
2019-02-14T16:43:26.753Z,1028.27
2019-02-14T16:44:26.760Z,1028.30
2019-02-14T16:45:26.761Z,1028.29
2019-02-14T16:46:26.819Z,1028.33
2019-02-14T16:47:26.795Z,1028.32
2019-02-14T16:48:26.796Z,1028.27
2019-02-14T16:49:26.806Z,1028.28
2019-02-14T16:50:26.821Z,1028.33
2019-02-14T16:51:26.830Z,1028.27
2019-02-14T16:52:26.839Z,1028.27
2019-02-14T16:53:26.844Z,1028.30
2019-02-14T16:54:26.853Z,1028.29
2019-02-14T16:55:26.867Z,1028.32
2019-02-14T16:56:26.880Z,1028.35
2019-02-14T16:57:26.886Z,1028.34
2019-02-14T16:58:26.896Z,1028.36
2019-02-14T16:59:26.900Z,1028.36
2019-02-14T17:00:26.906Z,1028.37
2019-02-14T17:01:26.925Z,1028.38
2019-02-14T17:02:26.928Z,1028.34
2019-02-14T17:03:26.948Z,1028.40
2019-02-14T17:04:26.978Z,1028.42
2019-02-14T17:05:26.946Z,1028.39
2019-02-14T17:06:26.968Z,1028.45
2019-02-14T17:07:26.973Z,1028.43
2019-02-14T17:08:26.980Z,1028.43
2019-02-14T17:09:26.999Z,1028.44
2019-02-14T17:10:27.015Z,1028.41
2019-02-14T17:11:27.013Z,1028.48
2019-02-14T17:12:27.047Z,1028.45
2019-02-14T17:13:27.030Z,1028.43
2019-02-14T17:14:27.041Z,1028.43
2019-02-14T17:15:27.046Z,1028.46
2019-02-14T17:16:27.060Z,1028.43
2019-02-14T17:17:28.045Z,1028.41
2019-02-14T17:18:27.078Z,1028.40
2019-02-14T17:19:27.086Z,1028.37
2019-02-14T17:20:27.093Z,1028.40
2019-02-14T17:21:27.115Z,1028.42
2019-02-14T17:22:27.120Z,1028.44
2019-02-14T17:23:27.131Z,1028.42
2019-02-14T17:24:27.134Z,1028.48
2019-02-14T17:25:27.141Z,1028.49
2019-02-14T17:26:27.158Z,1028.50
2019-02-14T17:27:27.157Z,1028.51